createdAt,value
2016-06-16T00:00:47.693Z,15.72
2016-06-16T00:01:47.604Z,15.75
2016-06-16T00:02:47.778Z,15.73
2016-06-16T00:03:47.828Z,15.65
2016-06-16T00:04:47.908Z,15.67
2016-06-16T00:05:47.927Z,15.65
2016-06-16T00:06:47.978Z,15.61
2016-06-16T00:07:47.997Z,15.72
2016-06-16T00:08:48.062Z,15.65
2016-06-16T00:09:48.128Z,15.72
2016-06-16T00:10:48.146Z,15.68
2016-06-16T00:11:48.040Z,15.68
2016-06-16T00:12:48.277Z,15.77
2016-06-16T00:13:48.297Z,15.77
2016-06-16T00:14:48.330Z,15.86
2016-06-16T00:15:48.411Z,15.84
2016-06-16T00:16:48.462Z,15.7
2016-06-16T00:17:48.465Z,15.84
2016-06-16T00:18:48.561Z,15.88
2016-06-16T00:19:48.580Z,15.76
2016-06-16T00:20:48.615Z,15.83
2016-06-16T00:21:48.680Z,15.83
2016-06-16T00:22:48.730Z,15.77
2016-06-16T00:23:48.764Z,15.65
2016-06-16T00:24:48.799Z,15.72
2016-06-16T00:25:49.895Z,15.72
2016-06-16T00:26:48.883Z,15.65
2016-06-16T00:27:48.933Z,15.65
2016-06-16T00:28:48.998Z,15.58
2016-06-16T00:29:49.017Z,15.57
2016-06-16T00:30:49.083Z,15.57
2016-06-16T00:31:48.946Z,15.54
2016-06-16T00:32:49.152Z,15.47
2016-06-16T00:33:49.232Z,15.59
2016-06-16T00:34:49.251Z,15.47
2016-06-16T00:35:49.286Z,15.52
2016-06-16T00:36:49.367Z,15.54
2016-06-16T00:37:49.245Z,15.57
2016-06-16T00:38:49.435Z,15.59
2016-06-16T00:39:49.345Z,15.58
2016-06-16T00:40:49.566Z,15.55
2016-06-16T00:41:49.570Z,15.44
2016-06-16T00:42:49.635Z,15.44
2016-06-16T00:43:49.653Z,15.47
2016-06-16T00:44:49.736Z,15.43
2016-06-16T00:45:49.770Z,15.44
2016-06-16T00:46:49.803Z,15.43
2016-06-16T00:47:49.870Z,15.44
2016-06-16T00:48:49.919Z,15.4
2016-06-16T00:49:49.938Z,15.55
2016-06-16T00:50:50.004Z,15.42
2016-06-16T00:51:50.053Z,15.44
2016-06-16T00:52:50.056Z,15.47
2016-06-16T00:53:50.122Z,15.54
2016-06-16T00:54:50.172Z,15.37
2016-06-16T00:55:50.066Z,15.44
2016-06-16T00:56:50.272Z,15.51
2016-06-16T00:57:50.291Z,15.44
2016-06-16T00:58:50.372Z,15.55
2016-06-16T00:59:50.407Z,15.46
2016-06-16T01:00:50.440Z,15.52
2016-06-16T01:01:50.350Z,15.55
2016-06-16T01:02:50.556Z,15.59
2016-06-16T01:03:50.575Z,15.55
2016-06-16T01:04:50.625Z,15.49
2016-06-16T01:05:50.690Z,15.47
2016-06-16T01:06:50.709Z,15.49
2016-06-16T01:07:50.759Z,15.52
2016-06-16T01:08:50.810Z,15.4
2016-06-16T01:09:50.858Z,15.31
2016-06-16T01:10:51.034Z,15.46
2016-06-16T01:11:50.881Z,15.42
2016-06-16T01:12:50.853Z,15.4
2016-06-16T01:13:51.027Z,15.39
2016-06-16T01:14:50.999Z,15.36
2016-06-16T01:15:51.143Z,15.39
2016-06-16T01:16:51.162Z,15.4
2016-06-16T01:17:51.212Z,15.37
2016-06-16T01:18:51.277Z,15.4
2016-06-16T01:19:51.296Z,15.29
2016-06-16T01:20:51.331Z,15.35
2016-06-16T01:21:51.395Z,15.47
2016-06-16T01:22:51.461Z,15.43
2016-06-16T01:23:51.511Z,15.28
2016-06-16T01:24:51.529Z,15.29
2016-06-16T01:25:51.612Z,15.28
2016-06-16T01:26:51.661Z,15.4
2016-06-16T01:27:51.664Z,15.33
2016-06-16T01:28:51.713Z,15.29
2016-06-16T01:29:51.795Z,15.37
2016-06-16T01:30:51.798Z,15.27
2016-06-16T01:31:51.848Z,15.25
2016-06-16T01:32:51.914Z,15.31
2016-06-16T01:33:51.932Z,15.28
2016-06-16T01:34:52.014Z,15.18
2016-06-16T01:35:52.032Z,15.18
2016-06-16T01:36:52.082Z,15.18
2016-06-16T01:37:52.132Z,15.15
2016-06-16T01:38:52.152Z,15.15
2016-06-16T01:39:52.200Z,15.11
2016-06-16T01:40:53.094Z,15.11
2016-06-16T01:41:52.301Z,15.18
2016-06-16T01:42:52.335Z,15.17
2016-06-16T01:43:52.417Z,15.18
2016-06-16T01:44:52.435Z,15.15
2016-06-16T01:45:52.485Z,15.19
2016-06-16T01:46:52.551Z,15.1
2016-06-16T01:47:52.569Z,15.15
2016-06-16T01:48:52.635Z,15.11
2016-06-16T01:49:52.514Z,15.14
2016-06-16T01:50:52.719Z,15.15
2016-06-16T01:51:52.784Z,15.15
2016-06-16T01:52:52.820Z,15.11
2016-06-16T01:53:52.838Z,15.1
2016-06-16T01:54:52.903Z,15.11
2016-06-16T01:55:53.031Z,15.1
2016-06-16T01:56:52.972Z,15.17
2016-06-16T01:57:53.022Z,15.17
2016-06-16T01:58:53.088Z,15.1
2016-06-16T01:59:53.106Z,15.14
2016-06-16T02:00:53.172Z,15.07
2016-06-16T02:01:53.237Z,15.06
2016-06-16T02:02:53.241Z,15.07
2016-06-16T02:03:53.290Z,15.09
2016-06-16T02:04:53.372Z,14.94
2016-06-16T02:05:53.374Z,15.06
2016-06-16T02:06:53.425Z,15.1
2016-06-16T02:07:53.505Z,15.07
2016-06-16T02:08:53.525Z,15.11
2016-06-16T02:09:53.543Z,15.11
2016-06-16T02:10:53.718Z,15.03
2016-06-16T02:11:53.534Z,15.06
2016-06-16T02:12:53.709Z,14.99
2016-06-16T02:13:53.759Z,14.89
2016-06-16T02:14:53.793Z,14.96
2016-06-16T02:15:53.858Z,14.91
2016-06-16T02:16:53.909Z,14.82
2016-06-16T02:17:53.927Z,14.78
2016-06-16T02:18:53.992Z,14.68
2016-06-16T02:19:54.043Z,14.6
2016-06-16T02:20:53.890Z,14.63
2016-06-16T02:21:54.111Z,14.68
2016-06-16T02:22:54.021Z,14.66
2016-06-16T02:23:54.180Z,14.55
2016-06-16T02:24:54.230Z,14.66
2016-06-16T02:25:54.311Z,14.66
2016-06-16T02:26:54.361Z,14.69
2016-06-16T02:27:54.239Z,14.69
2016-06-16T02:28:54.415Z,14.7
2016-06-16T02:29:54.464Z,14.77
2016-06-16T02:30:54.529Z,14.77
2016-06-16T02:31:54.548Z,14.69
2016-06-16T02:32:54.583Z,14.81
2016-06-16T02:33:54.663Z,14.65
2016-06-16T02:34:54.699Z,14.66
2016-06-16T02:35:54.733Z,14.7
2016-06-16T02:36:54.814Z,14.63
2016-06-16T02:37:54.848Z,14.77
2016-06-16T02:38:54.898Z,14.73
2016-06-16T02:39:54.760Z,14.78
2016-06-16T02:40:55.513Z,14.7
2016-06-16T02:41:55.032Z,14.78
2016-06-16T02:42:55.035Z,14.72
2016-06-16T02:43:55.085Z,14.85
2016-06-16T02:44:55.167Z,14.78
2016-06-16T02:45:55.186Z,14.7
2016-06-16T02:46:55.219Z,14.73
2016-06-16T02:47:55.300Z,14.68
2016-06-16T02:48:55.335Z,14.6
2016-06-16T02:49:55.401Z,14.59
2016-06-16T02:50:55.418Z,14.47
2016-06-16T02:51:55.485Z,14.48
2016-06-16T02:52:55.519Z,14.47
2016-06-16T02:53:55.553Z,14.51
2016-06-16T02:54:55.635Z,14.53
2016-06-16T02:55:55.639Z,14.48
2016-06-16T02:56:55.844Z,14.47
2016-06-16T02:57:55.753Z,14.45
2016-06-16T02:58:55.773Z,14.51
2016-06-16T02:59:55.869Z,14.45
2016-06-16T03:00:55.904Z,14.41
2016-06-16T03:01:55.922Z,14.4
2016-06-16T03:02:55.956Z,14.36
2016-06-16T03:03:56.038Z,14.33
2016-06-16T03:04:56.056Z,14.43
2016-06-16T03:05:56.122Z,14.3
2016-06-16T03:06:56.140Z,14.15
2016-06-16T03:07:56.191Z,14.17
2016-06-16T03:08:56.240Z,14.08
2016-06-16T03:09:56.274Z,14.14
2016-06-16T03:10:56.309Z,14.1
2016-06-16T03:11:56.391Z,14.1
2016-06-16T03:12:56.425Z,14.1
2016-06-16T03:13:56.443Z,14.08
2016-06-16T03:14:56.524Z,14.15
2016-06-16T03:15:56.559Z,14.12
2016-06-16T03:16:56.593Z,14.1
2016-06-16T03:17:56.627Z,14.11
2016-06-16T03:18:56.662Z,14.14
2016-06-16T03:19:56.743Z,14.12
2016-06-16T03:20:56.777Z,14.04
2016-06-16T03:21:56.796Z,14.03
2016-06-16T03:22:56.721Z,13.92
2016-06-16T03:23:56.911Z,13.92
2016-06-16T03:24:56.946Z,13.86
2016-06-16T03:25:57.011Z,13.83
2016-06-16T03:26:57.061Z,13.93
2016-06-16T03:27:57.080Z,13.81
2016-06-16T03:28:57.130Z,13.85
2016-06-16T03:29:57.163Z,13.85
2016-06-16T03:30:57.230Z,13.86
2016-06-16T03:31:57.280Z,13.86
2016-06-16T03:32:57.298Z,13.79
2016-06-16T03:33:57.348Z,13.74
2016-06-16T03:34:57.414Z,13.77
2016-06-16T03:35:57.417Z,13.77
2016-06-16T03:36:57.483Z,13.77
2016-06-16T03:37:57.548Z,13.74
2016-06-16T03:38:57.566Z,13.83
2016-06-16T03:39:57.601Z,13.79
2016-06-16T03:40:57.682Z,13.77
2016-06-16T03:41:57.639Z,13.74
2016-06-16T03:42:57.735Z,13.81
2016-06-16T03:43:57.816Z,13.83
2016-06-16T03:44:57.851Z,13.85
2016-06-16T03:45:57.869Z,13.89
2016-06-16T03:46:57.951Z,13.87
2016-06-16T03:47:58.001Z,13.9
2016-06-16T03:48:58.019Z,13.97
2016-06-16T03:49:58.085Z,13.96
2016-06-16T03:50:57.979Z,13.93
2016-06-16T03:51:58.153Z,13.95
2016-06-16T03:52:58.203Z,14.1
2016-06-16T03:53:58.269Z,14.12
2016-06-16T03:54:58.273Z,14.1
2016-06-16T03:55:58.368Z,14.15
2016-06-16T03:56:58.060Z,14.1
2016-06-16T03:57:58.422Z,14.12
2016-06-16T03:58:58.488Z,14.25
2016-06-16T03:59:58.553Z,14.28
2016-06-16T04:00:58.556Z,14.32
2016-06-16T04:01:58.622Z,14.23
2016-06-16T04:02:58.484Z,14.29
2016-06-16T04:03:58.691Z,14.32
2016-06-16T04:04:58.771Z,14.33
2016-06-16T04:05:58.806Z,14.36
2016-06-16T04:06:58.824Z,14.44
2016-06-16T04:07:58.891Z,14.47
2016-06-16T04:08:58.768Z,14.43
2016-06-16T04:09:58.974Z,14.5
2016-06-16T04:10:59.009Z,14.43
2016-06-16T04:11:59.293Z,14.43
2016-06-16T04:12:59.140Z,14.53
2016-06-16T04:13:59.158Z,14.53
2016-06-16T04:14:59.193Z,14.5
2016-06-16T04:15:59.259Z,14.48
2016-06-16T04:16:59.327Z,14.43
2016-06-16T04:17:59.370Z,14.44
2016-06-16T04:18:59.491Z,14.33
2016-06-16T04:19:59.580Z,14.47
2016-06-16T04:20:59.639Z,14.35
2016-06-16T04:21:59.546Z,14.45
2016-06-16T04:22:59.766Z,14.37
2016-06-16T04:23:59.861Z,14.37
2016-06-16T04:24:59.911Z,14.29
2016-06-16T04:25:59.943Z,14.3
2016-06-16T04:27:00.487Z,14.36
2016-06-16T04:28:00.074Z,14.41
2016-06-16T04:29:00.113Z,14.48
2016-06-16T04:30:00.199Z,14.43
2016-06-16T04:31:00.082Z,14.32
2016-06-16T04:32:00.245Z,14.26
2016-06-16T04:33:00.313Z,14.33
2016-06-16T04:34:00.349Z,14.37
2016-06-16T04:35:00.448Z,14.3
2016-06-16T04:36:00.467Z,14.33
2016-06-16T04:37:00.488Z,14.3
2016-06-16T04:38:00.554Z,14.37
2016-06-16T04:39:00.605Z,14.37
2016-06-16T04:40:00.625Z,14.4
2016-06-16T04:41:00.691Z,14.37
2016-06-16T04:42:00.757Z,14.37
2016-06-16T04:43:00.761Z,14.43
2016-06-16T04:44:00.811Z,14.45
2016-06-16T04:45:00.877Z,14.5
2016-06-16T04:46:00.755Z,14.66
2016-06-16T04:47:00.961Z,14.54
2016-06-16T04:48:00.996Z,14.55
2016-06-16T04:49:01.031Z,14.65
2016-06-16T04:50:01.111Z,14.66
2016-06-16T04:51:01.131Z,14.68
2016-06-16T04:52:01.165Z,14.7
2016-06-16T04:53:01.262Z,14.58
2016-06-16T04:54:01.296Z,14.65
2016-06-16T04:55:01.315Z,14.55
2016-06-16T04:56:01.239Z,14.63
2016-06-16T04:57:01.696Z,14.63
2016-06-16T04:58:01.450Z,14.7
2016-06-16T04:59:01.514Z,14.69
2016-06-16T05:00:01.580Z,14.68
2016-06-16T05:01:01.598Z,14.66
2016-06-16T05:02:01.632Z,14.7
2016-06-16T05:03:01.667Z,14.66
2016-06-16T05:04:01.749Z,14.7
2016-06-16T05:05:01.799Z,14.55
2016-06-16T05:06:01.801Z,14.55
2016-06-16T05:07:01.883Z,14.66
2016-06-16T05:08:01.917Z,14.54
2016-06-16T05:09:01.936Z,14.68
2016-06-16T05:10:01.845Z,14.72
2016-06-16T05:11:02.067Z,14.84
2016-06-16T05:12:02.929Z,14.91
2016-06-16T05:13:02.136Z,14.82
2016-06-16T05:14:02.170Z,14.89
2016-06-16T05:15:02.267Z,14.85
2016-06-16T05:16:02.286Z,14.97
2016-06-16T05:17:02.319Z,15.03
2016-06-16T05:18:02.386Z,15.04
2016-06-16T05:19:02.420Z,14.94
2016-06-16T05:20:02.438Z,14.96
2016-06-16T05:21:02.504Z,15.04
2016-06-16T05:22:02.569Z,15.07
2016-06-16T05:23:02.572Z,15.09
2016-06-16T05:24:02.622Z,15.04
2016-06-16T05:25:02.688Z,15.06
2016-06-16T05:26:02.722Z,15.02
2016-06-16T05:27:02.960Z,15.1
2016-06-16T05:28:02.838Z,15.1
2016-06-16T05:29:02.888Z,15.15
2016-06-16T05:30:02.906Z,15.14
2016-06-16T05:31:02.971Z,15.25
2016-06-16T05:32:03.022Z,15.28
2016-06-16T05:33:03.244Z,15.33
2016-06-16T05:34:03.185Z,15.28
2016-06-16T05:35:03.188Z,15.33
2016-06-16T05:36:03.175Z,15.29
2016-06-16T05:37:03.225Z,15.31
2016-06-16T05:38:03.275Z,15.33
2016-06-16T05:39:03.356Z,15.36
2016-06-16T05:40:03.390Z,15.46
2016-06-16T05:41:03.409Z,15.43
2016-06-16T05:42:03.490Z,15.47
2016-06-16T05:43:03.541Z,15.49
2016-06-16T05:44:03.544Z,15.52
2016-06-16T05:45:03.609Z,15.49
2016-06-16T05:46:03.659Z,15.52
2016-06-16T05:47:03.678Z,15.52
2016-06-16T05:48:03.727Z,15.64
2016-06-16T05:49:03.809Z,15.58
2016-06-16T05:50:03.812Z,15.68
2016-06-16T05:51:03.908Z,15.8
2016-06-16T05:52:03.911Z,15.73
2016-06-16T05:53:03.821Z,15.9
2016-06-16T05:54:04.027Z,15.91
2016-06-16T05:55:04.046Z,16.01
2016-06-16T05:56:04.096Z,16.1
2016-06-16T05:57:04.209Z,16.04
2016-06-16T05:58:04.180Z,15.98
2016-06-16T05:59:04.230Z,16.12
2016-06-16T06:00:04.201Z,16.12
2016-06-16T06:01:04.329Z,16.13
2016-06-16T06:02:04.364Z,16.17
2016-06-16T06:03:04.461Z,16.15
2016-06-16T06:04:04.464Z,16.21
2016-06-16T06:05:04.545Z,16.31
2016-06-16T06:06:04.579Z,16.28
2016-06-16T06:07:04.614Z,16.39
2016-06-16T06:08:04.680Z,16.36
2016-06-16T06:09:04.746Z,16.36
2016-06-16T06:10:04.749Z,16.53
2016-06-16T06:11:04.814Z,16.56
2016-06-16T06:12:05.083Z,16.49
2016-06-16T06:13:04.882Z,16.43
2016-06-16T06:14:04.932Z,16.56
2016-06-16T06:15:04.998Z,16.47
2016-06-16T06:16:05.017Z,16.53
2016-06-16T06:17:05.082Z,16.54
2016-06-16T06:18:05.101Z,16.56
2016-06-16T06:19:05.198Z,16.47
2016-06-16T06:20:05.248Z,16.61
2016-06-16T06:21:05.266Z,16.65
2016-06-16T06:22:05.333Z,16.72
2016-06-16T06:23:05.381Z,16.66
2016-06-16T06:24:05.401Z,16.71
2016-06-16T06:25:05.450Z,16.78
2016-06-16T06:26:05.532Z,16.79
2016-06-16T06:27:05.535Z,16.81
2016-06-16T06:28:05.585Z,16.83
2016-06-16T06:29:05.635Z,16.94
2016-06-16T06:30:05.685Z,17.04
2016-06-16T06:31:05.750Z,17.11
2016-06-16T06:32:05.769Z,16.99
2016-06-16T06:33:05.819Z,16.94
2016-06-16T06:34:05.884Z,16.91
2016-06-16T06:35:05.919Z,17.2
2016-06-16T06:36:05.954Z,17.11
2016-06-16T06:37:05.879Z,17.16
2016-06-16T06:38:06.052Z,17.09
2016-06-16T06:39:06.102Z,17.14
2016-06-16T06:40:06.028Z,17.15
2016-06-16T06:41:06.219Z,17.22
2016-06-16T06:42:07.128Z,17.27
2016-06-16T06:43:06.287Z,17.23
2016-06-16T06:44:06.165Z,17.29
2016-06-16T06:45:06.418Z,17.31
2016-06-16T06:46:06.452Z,17.34
2016-06-16T06:47:06.471Z,17.41
2016-06-16T06:48:06.552Z,17.44
2016-06-16T06:49:06.603Z,17.42
2016-06-16T06:50:06.465Z,17.42
2016-06-16T06:51:06.687Z,17.46
2016-06-16T06:52:06.736Z,17.49
2016-06-16T06:53:06.756Z,17.63
2016-06-16T06:54:06.820Z,17.57
2016-06-16T06:55:06.855Z,17.65
2016-06-16T06:56:06.937Z,17.64
2016-06-16T06:57:06.690Z,17.85
2016-06-16T06:58:06.989Z,17.97
2016-06-16T06:59:07.071Z,18.08
2016-06-16T07:00:07.167Z,18.07
2016-06-16T07:01:07.139Z,18.05
2016-06-16T07:02:07.220Z,18.04
2016-06-16T07:03:07.271Z,18.04
2016-06-16T07:04:07.290Z,18.15
2016-06-16T07:05:07.354Z,18.2
2016-06-16T07:06:07.404Z,18.35
2016-06-16T07:07:07.424Z,18.41
2016-06-16T07:08:07.474Z,18.5
2016-06-16T07:09:07.570Z,18.56
2016-06-16T07:10:07.589Z,18.56
2016-06-16T07:11:07.639Z,18.58
2016-06-16T07:12:07.954Z,18.63
2016-06-16T07:13:07.739Z,18.63
2016-06-16T07:14:07.757Z,18.52
2016-06-16T07:15:07.823Z,18.49
2016-06-16T07:16:07.889Z,18.49
2016-06-16T07:17:07.908Z,18.59
2016-06-16T07:18:07.973Z,18.65
2016-06-16T07:19:08.022Z,18.75
2016-06-16T07:20:08.042Z,18.78
2016-06-16T07:21:08.107Z,18.83
2016-06-16T07:22:08.142Z,19.04
2016-06-16T07:23:08.254Z,18.92
2016-06-16T07:24:08.288Z,18.86
2016-06-16T07:25:08.292Z,18.83
2016-06-16T07:26:08.357Z,18.71
2016-06-16T07:27:08.594Z,18.88
2016-06-16T07:28:08.456Z,18.99
2016-06-16T07:29:08.491Z,18.9
2016-06-16T07:30:08.557Z,18.98
2016-06-16T07:31:08.575Z,19
2016-06-16T07:32:08.625Z,19.07
2016-06-16T07:33:08.691Z,19.08
2016-06-16T07:34:08.773Z,19.12
2016-06-16T07:48:37.599Z,19.27
2016-06-16T07:48:41.099Z,20.14
2016-06-16T07:48:53.615Z,20.11
2016-06-16T07:49:53.821Z,20.07
2016-06-16T07:50:53.839Z,20.03
2016-06-16T07:51:53.967Z,20.19
2016-06-16T07:52:53.955Z,20.24
2016-06-16T07:53:53.989Z,20.21
2016-06-16T07:54:54.040Z,20.07
2016-06-16T07:55:54.105Z,20.18
2016-06-16T07:56:54.155Z,20.18
2016-06-16T07:57:54.204Z,20.22
2016-06-16T07:58:54.254Z,20.31
2016-06-16T07:59:54.274Z,20.32
2016-06-16T08:00:54.261Z,20.44
2016-06-16T08:01:54.389Z,20.41
2016-06-16T08:02:54.439Z,20.39
2016-06-16T08:03:54.504Z,20.4
2016-06-16T08:04:54.554Z,20.41
2016-06-16T08:05:54.573Z,20.69
2016-06-16T08:06:54.655Z,20.56
2016-06-16T08:07:54.720Z,20.67
2016-06-16T08:08:54.723Z,20.75
2016-06-16T08:09:54.805Z,20.92
2016-06-16T08:10:54.823Z,20.88
2016-06-16T08:11:54.638Z,20.81
2016-06-16T08:12:54.939Z,20.9
2016-06-16T08:13:54.973Z,21.03
2016-06-16T08:14:55.053Z,21.14
2016-06-16T08:15:55.104Z,21.14
2016-06-16T08:16:55.122Z,20.85
2016-06-16T08:17:55.188Z,20.74
2016-06-16T08:18:55.254Z,20.58
2016-06-16T08:19:54.960Z,20.69
2016-06-16T08:20:55.338Z,20.56
2016-06-16T08:21:55.404Z,20.63
2016-06-16T08:22:55.265Z,20.62
2016-06-16T08:23:55.504Z,20.44
2016-06-16T08:24:55.521Z,20.47
2016-06-16T08:25:55.587Z,20.47
2016-06-16T08:26:55.496Z,20.55
2016-06-16T08:27:55.672Z,20.69
2016-06-16T08:28:55.566Z,20.72
2016-06-16T08:29:55.647Z,20.66
2016-06-16T08:30:55.665Z,20.62
2016-06-16T08:31:55.715Z,20.59
2016-06-16T08:32:55.953Z,20.74
2016-06-16T08:33:55.987Z,20.95
2016-06-16T08:34:56.038Z,21.21
2016-06-16T08:35:56.119Z,21.18
2016-06-16T08:36:56.122Z,21.18
2016-06-16T08:37:56.202Z,21.09
2016-06-16T08:38:56.222Z,20.7
2016-06-16T08:39:56.256Z,20.77
2016-06-16T08:40:56.353Z,20.9
2016-06-16T08:41:56.387Z,20.77
2016-06-16T08:42:56.422Z,20.81
2016-06-16T08:43:56.347Z,20.7
2016-06-16T08:44:56.538Z,20.66
2016-06-16T08:45:56.572Z,20.69
2016-06-16T08:46:56.637Z,20.69
2016-06-16T08:47:56.686Z,20.67
2016-06-16T08:48:19.643Z,21.14
2016-06-16T08:48:32.331Z,21.25
2016-06-16T08:49:32.381Z,21.12
2016-06-16T08:50:32.432Z,21.09
2016-06-16T08:51:32.449Z,21.09
2016-06-16T08:52:32.577Z,21.22
2016-06-16T08:53:32.441Z,21.27
2016-06-16T08:54:32.615Z,21.25
2016-06-16T08:55:32.525Z,21.32
2016-06-16T08:56:32.792Z,21.36
2016-06-16T08:57:32.765Z,21.46
2016-06-16T08:58:32.830Z,21.43
2016-06-16T08:59:32.880Z,21.43
2016-06-16T09:00:32.774Z,21.3
2016-06-16T09:01:32.965Z,21.42
2016-06-16T09:02:33.046Z,21.43
2016-06-16T09:03:33.080Z,21.54
2016-06-16T09:04:32.958Z,21.6
2016-06-16T09:05:33.196Z,21.6
2016-06-16T09:06:33.245Z,21.62
2016-06-16T09:07:33.264Z,21.76
2016-06-16T09:08:33.329Z,21.88
2016-06-16T09:09:33.396Z,22.08
2016-06-16T09:10:33.414Z,22.15
2016-06-16T09:11:33.480Z,21.98
2016-06-16T09:12:33.498Z,21.76
2016-06-16T09:13:33.580Z,21.92
2016-06-16T09:14:33.630Z,21.93
2016-06-16T09:15:33.664Z,21.89
2016-06-16T09:16:33.745Z,22.1
2016-06-16T09:17:33.795Z,22.17
2016-06-16T09:18:33.673Z,22.35
2016-06-16T09:19:33.896Z,22.54
2016-06-16T09:20:33.944Z,22.51
2016-06-16T09:21:33.964Z,22.7
2016-06-16T09:22:34.029Z,23.05
2016-06-16T09:23:33.953Z,23
2016-06-16T09:24:34.114Z,23.08
2016-06-16T09:25:34.039Z,22.98
2016-06-16T09:26:34.229Z,23.08
2016-06-16T09:27:34.138Z,23.17
2016-06-16T09:28:34.376Z,23.09
2016-06-16T09:29:34.379Z,22.94
2016-06-16T09:30:34.444Z,22.53
2016-06-16T09:31:34.510Z,22.11
2016-06-16T09:32:34.528Z,22.1
2016-06-16T09:33:34.579Z,22
2016-06-16T09:34:34.659Z,22.07
2016-06-16T09:35:34.695Z,22.44
2016-06-16T09:36:34.573Z,22.57
2016-06-16T09:37:34.654Z,22.76
2016-06-16T09:38:34.859Z,23.1
2016-06-16T09:39:34.910Z,23.21
2016-06-16T09:40:34.944Z,23.39
2016-06-16T09:41:34.994Z,23.68
2016-06-16T09:42:35.294Z,24.02
2016-06-16T09:43:35.156Z,24.32
2016-06-16T09:44:35.253Z,24.13
2016-06-16T09:45:35.662Z,23.8
2016-06-16T09:46:35.275Z,23.78
2016-06-16T09:47:35.309Z,23.77
2016-06-16T09:48:35.390Z,24.01
2016-06-16T09:49:35.441Z,24.18
2016-06-16T09:50:35.458Z,24.28
2016-06-16T09:51:35.525Z,24.43
2016-06-16T09:52:35.559Z,24.3
2016-06-16T09:53:35.640Z,24.32
2016-06-16T09:54:35.689Z,24.43
2016-06-16T09:55:35.568Z,24.45
2016-06-16T09:56:35.712Z,24.54
2016-06-16T09:57:35.855Z,24.77
2016-06-16T09:58:35.718Z,24.69
2016-06-16T09:59:35.955Z,24.6
2016-06-16T10:00:36.005Z,25.04
2016-06-16T10:01:36.039Z,25.23
2016-06-16T10:02:36.106Z,25.28
2016-06-16T10:03:36.499Z,25.4
2016-06-16T10:04:36.346Z,25.69
2016-06-16T10:05:36.271Z,25.54
2016-06-16T10:06:36.305Z,25.51
2016-06-16T10:07:36.370Z,25.46
2016-06-16T10:08:38.827Z,25.5
2016-06-16T10:09:37.049Z,25.54
2016-06-16T10:10:36.505Z,25.54
2016-06-16T10:11:36.430Z,25.77
2016-06-16T10:12:36.620Z,25.43
2016-06-16T10:13:36.529Z,25.44
2016-06-16T10:14:36.455Z,25.36
2016-06-16T10:15:36.802Z,25.36
2016-06-16T10:16:36.851Z,25.47
2016-06-16T10:17:36.730Z,25.17
2016-06-16T10:18:36.779Z,24.88
2016-06-16T10:19:37.001Z,24.89
2016-06-16T10:20:36.895Z,24.85
2016-06-16T10:21:37.086Z,24.91
2016-06-16T10:22:36.870Z,25.18
2016-06-16T10:23:37.217Z,25.23
2016-06-16T10:24:37.251Z,25.16
2016-06-16T10:25:37.348Z,25.03
2016-06-16T10:26:37.382Z,25.01
2016-06-16T10:27:37.417Z,25.4
2016-06-16T10:28:37.497Z,25.73
2016-06-16T10:29:37.517Z,26
2016-06-16T10:30:37.442Z,25.98
2016-06-16T10:31:37.632Z,26
2016-06-16T10:32:37.526Z,26.18
2016-06-16T10:33:37.748Z,25.78
2016-06-16T10:34:37.796Z,25.62
2016-06-16T10:35:37.832Z,25.59
2016-06-16T10:36:37.913Z,25.38
2016-06-16T10:37:37.978Z,25.51
2016-06-16T10:38:38.013Z,25.73
2016-06-16T10:39:38.078Z,25.8
2016-06-16T10:40:38.129Z,25.53
2016-06-16T10:41:38.162Z,25.4
2016-06-16T10:42:38.212Z,25.31
2016-06-16T10:43:38.278Z,25.22
2016-06-16T10:44:38.328Z,25.21
2016-06-16T10:45:38.363Z,25.22
2016-06-16T10:46:38.459Z,25.07
2016-06-16T10:47:38.494Z,25.03
2016-06-16T10:48:38.528Z,24.93
2016-06-16T10:49:38.453Z,24.91
2016-06-16T10:50:38.675Z,24.92
2016-06-16T10:51:38.693Z,24.98
2016-06-16T10:52:38.602Z,25.32
2016-06-16T10:53:38.668Z,25.65
2016-06-16T10:54:38.859Z,25.6
2016-06-16T10:55:38.908Z,25.68
2016-06-16T10:56:39.006Z,25.58
2016-06-16T10:57:39.056Z,25.51
2016-06-16T10:58:39.075Z,25.26
2016-06-16T10:59:39.108Z,25.23
2016-06-16T11:00:39.206Z,25.31
2016-06-16T11:01:39.255Z,25.43
2016-06-16T11:02:39.118Z,25.16
2016-06-16T11:03:39.356Z,25.22
2016-06-16T11:04:39.405Z,25.36
2016-06-16T11:07:44.899Z,25.04
2016-06-16T11:09:35.624Z,24.89
2016-06-16T11:09:48.343Z,25.04
2016-06-16T11:10:48.221Z,24.98
2016-06-16T11:11:48.442Z,25.01
2016-06-16T11:13:38.980Z,25.01
2016-06-16T11:13:51.652Z,25.14
2016-06-16T11:14:51.577Z,25.14
2016-06-16T11:15:51.627Z,25.35
2016-06-16T11:16:51.802Z,25.53
2016-06-16T11:17:51.852Z,25.9
2016-06-16T11:18:51.948Z,26.05
2016-06-16T11:19:52.014Z,25.91
2016-06-16T11:20:52.065Z,26.21
2016-06-16T11:21:52.083Z,26.65
2016-06-16T11:22:52.118Z,26.68
2016-06-16T11:23:52.214Z,26.89
2016-06-16T11:24:52.233Z,27.11
2016-06-16T11:25:52.127Z,27.2
2016-06-16T11:26:52.379Z,27.37
2016-06-16T11:27:52.414Z,26.95
2016-06-16T11:28:52.448Z,26.68
2016-06-16T11:29:52.545Z,26.66
2016-06-16T11:30:52.595Z,26.77
2016-06-16T11:31:52.457Z,26.62
2016-06-16T11:32:52.523Z,26.37
2016-06-16T11:33:52.714Z,26.29
2016-06-16T11:34:52.654Z,26.29
2016-06-16T11:35:52.845Z,26.29
2016-06-16T11:36:52.723Z,26.63
2016-06-16T11:37:52.819Z,26.68
2016-06-16T11:38:53.009Z,26.81
2016-06-16T11:39:53.045Z,26.97
2016-06-16T11:40:53.110Z,27.02
2016-06-16T11:41:53.035Z,27.2
2016-06-16T11:42:53.194Z,27.33
2016-06-16T11:43:53.260Z,27.77
2016-06-16T11:44:53.341Z,27.8
2016-06-16T11:45:53.203Z,27.82
2016-06-16T11:46:53.285Z,27.8
2016-06-16T11:47:53.475Z,27.58
2016-06-16T11:48:53.556Z,27.42
2016-06-16T11:49:53.621Z,27.71
2016-06-16T11:50:53.640Z,28.32
2016-06-16T11:51:53.722Z,28.56
2016-06-16T11:52:53.788Z,28.2
2016-06-16T11:53:53.806Z,28.52
2016-06-16T11:54:53.872Z,28.7
2016-06-16T11:55:53.937Z,28.72
2016-06-16T11:56:53.862Z,28.91
2016-06-16T11:57:53.724Z,28.78
2016-06-16T11:58:54.088Z,28.74
2016-06-16T11:59:54.013Z,28.38
2016-06-16T12:00:54.233Z,28.23
2016-06-16T12:01:54.253Z,28.35
2016-06-16T12:02:54.334Z,28.59
2016-06-16T12:03:54.399Z,28.91
2016-06-16T12:04:54.262Z,29.12
2016-06-16T12:05:54.328Z,29.31
2016-06-16T12:06:54.549Z,29.66
2016-06-16T12:07:54.599Z,29.71
2016-06-16T12:08:54.649Z,29.41
2016-06-16T12:09:54.730Z,29.2
2016-06-16T12:10:54.764Z,29.31
2016-06-16T12:11:54.830Z,29.07
2016-06-16T12:12:54.708Z,29.1
2016-06-16T12:13:54.773Z,29.02
2016-06-16T12:14:55.027Z,28.79
2016-06-16T12:15:54.905Z,28.52
2016-06-16T12:16:55.095Z,28.66
2016-06-16T12:17:55.193Z,28.69
2016-06-16T12:18:55.243Z,28.86
2016-06-16T12:19:55.261Z,28.75
2016-06-16T12:20:55.374Z,28.76
2016-06-16T12:21:55.252Z,28.26
2016-06-16T12:22:55.426Z,28.17
2016-06-16T12:23:55.492Z,28.17
2016-06-16T12:24:55.590Z,28.14
2016-06-16T12:25:55.607Z,28.25
2016-06-16T12:26:55.517Z,28.63
2016-06-16T12:27:55.754Z,28.76
2016-06-16T12:28:55.758Z,28.82
2016-06-16T12:29:55.823Z,29.22
2016-06-16T12:30:55.905Z,29.41
2016-06-16T12:31:55.783Z,29.41
2016-06-16T12:32:55.832Z,29.63
2016-06-16T12:33:55.914Z,29.32
2016-06-16T12:34:56.120Z,29.13
2016-06-16T12:35:55.998Z,28.85
2016-06-16T12:36:56.094Z,28.66
2016-06-16T12:37:56.286Z,28.42
2016-06-16T12:38:56.211Z,27.93
2016-06-16T12:39:56.400Z,27.83
2016-06-16T12:40:56.451Z,27.85
2016-06-16T12:41:56.516Z,27.75
2016-06-16T12:42:56.566Z,27.75
2016-06-16T12:43:56.601Z,27.37
2016-06-16T12:44:56.681Z,27.44
2016-06-16T12:45:56.747Z,27.67
2016-06-16T12:46:56.766Z,27.77
2016-06-16T12:47:56.832Z,27.82
2016-06-16T12:48:56.741Z,27.65
2016-06-16T12:49:56.931Z,27.22
2016-06-16T12:50:57.012Z,26.84
2016-06-16T12:51:57.048Z,26.83
2016-06-16T12:52:56.973Z,26.68
2016-06-16T12:58:58.381Z,26.26
2016-06-16T12:59:58.447Z,26.47
2016-06-16T13:00:58.325Z,26.33
2016-06-16T13:01:58.532Z,25.96
2016-06-16T13:02:58.628Z,26.18
2016-06-16T13:03:58.631Z,26.16
2016-06-16T13:04:58.681Z,26.31
2016-06-16T13:05:58.761Z,26.4
2016-06-16T13:06:58.828Z,26.23
2016-06-16T13:07:58.893Z,26.07
2016-06-16T13:08:58.896Z,26.18
2016-06-16T13:09:58.978Z,26.1
2016-06-16T13:10:59.044Z,26.34
2016-06-16T13:11:58.750Z,26.29
2016-06-16T13:12:59.113Z,25.91
2016-06-16T13:13:59.194Z,25.77